createdAt,value
2016-12-11T00:00:15.930Z,1011.03
2016-12-11T00:01:27.168Z,1011.01
2016-12-11T00:02:38.356Z,1011.01
2016-12-11T00:03:49.341Z,1011
2016-12-11T00:05:00.330Z,1011
2016-12-11T00:06:11.323Z,1011.02
2016-12-11T00:07:22.358Z,1011.03
2016-12-11T00:08:33.349Z,1010.96
2016-12-11T00:09:44.347Z,1010.9
2016-12-11T00:10:55.335Z,1010.87
2016-12-11T00:12:06.514Z,1010.87
2016-12-11T00:13:17.554Z,1010.84
2016-12-11T00:14:28.542Z,1010.84
2016-12-11T00:15:39.529Z,1010.78
2016-12-11T00:16:50.522Z,1010.75
2016-12-11T00:18:01.916Z,1010.65
2016-12-11T00:19:12.948Z,1010.68
2016-12-11T00:20:23.947Z,1010.67
2016-12-11T00:21:34.932Z,1010.63
2016-12-11T00:22:45.923Z,1010.61
2016-12-11T00:23:57.107Z,1010.56
2016-12-11T00:25:08.094Z,1010.53
2016-12-11T00:26:19.279Z,1010.44
2016-12-11T00:27:30.270Z,1010.44
2016-12-11T00:28:41.260Z,1010.4
2016-12-11T00:29:52.248Z,1010.33
2016-12-11T00:31:03.244Z,1010.36
2016-12-11T00:32:14.436Z,1010.26
2016-12-11T00:33:25.425Z,1010.26
2016-12-11T00:34:36.418Z,1010.22
2016-12-11T00:35:47.605Z,1010.21
2016-12-11T00:36:58.594Z,1010.18
2016-12-11T00:38:09.580Z,1010.14
2016-12-11T00:39:20.570Z,1010.18
2016-12-11T00:40:31.561Z,1010.17
2016-12-11T00:41:42.547Z,1010.14
2016-12-11T00:42:53.547Z,1010.09
2016-12-11T00:44:04.539Z,1010.11
2016-12-11T00:45:15.570Z,1010.08
2016-12-11T00:46:26.561Z,1010.04
2016-12-11T00:47:37.552Z,1010.04
2016-12-11T00:48:48.539Z,1010.02
2016-12-11T00:49:59.729Z,1010.04
2016-12-11T00:51:10.772Z,1010.04
2016-12-11T00:52:21.755Z,1009.96
2016-12-11T00:53:32.739Z,1009.88
2016-12-11T00:54:43.741Z,1009.86
2016-12-11T00:55:54.730Z,1009.81
2016-12-11T00:57:05.719Z,1009.83
2016-12-11T00:58:16.701Z,1009.76
2016-12-11T00:59:27.692Z,1009.72
2016-12-11T01:00:38.677Z,1009.67
2016-12-11T01:01:49.864Z,1009.67
2016-12-11T01:03:00.858Z,1009.58
2016-12-11T01:04:11.874Z,1009.54
2016-12-11T01:05:22.857Z,1009.46
2016-12-11T01:06:34.047Z,1009.44
2016-12-11T01:07:45.040Z,1009.47
2016-12-11T01:08:56.034Z,1009.43
2016-12-11T01:10:07.028Z,1009.42
2016-12-11T01:11:18.013Z,1009.36
2016-12-11T01:12:29.210Z,1009.43
2016-12-11T01:13:40.206Z,1009.39
2016-12-11T01:14:51.197Z,1009.35
2016-12-11T01:16:02.190Z,1009.32
2016-12-11T01:17:13.180Z,1009.35
2016-12-11T01:18:24.170Z,1009.27
2016-12-11T01:19:35.166Z,1009.21
2016-12-11T01:20:46.149Z,1009.25
2016-12-11T01:21:57.137Z,1009.29
2016-12-11T01:23:08.151Z,1009.12
2016-12-11T01:24:19.160Z,1009.14
2016-12-11T01:25:30.167Z,1009.1
2016-12-11T01:26:41.149Z,1009.06
2016-12-11T01:27:52.135Z,1009.07
2016-12-11T01:29:03.128Z,1009.03
2016-12-11T01:30:14.111Z,1009.01
2016-12-11T01:31:25.095Z,1009.07
2016-12-11T01:32:36.079Z,1009.02
2016-12-11T01:33:47.063Z,1008.96
2016-12-11T01:34:58.045Z,1008.93
2016-12-11T01:36:09.036Z,1008.87
2016-12-11T01:37:20.025Z,1008.86
2016-12-11T01:38:31.021Z,1008.89
2016-12-11T01:39:42.207Z,1008.85
2016-12-11T01:40:53.241Z,1008.81
2016-12-11T01:42:04.229Z,1008.79
2016-12-11T01:43:15.452Z,1008.77
2016-12-11T01:44:26.634Z,1008.8
2016-12-11T01:45:37.623Z,1008.85
2016-12-11T01:46:48.613Z,1008.76
2016-12-11T01:47:59.594Z,1008.8
2016-12-11T01:49:10.580Z,1008.78
2016-12-11T01:50:21.564Z,1008.81
2016-12-11T01:51:32.546Z,1008.86
2016-12-11T01:52:43.568Z,1008.8
2016-12-11T01:53:54.551Z,1008.79
2016-12-11T01:55:05.538Z,1008.75
2016-12-11T01:56:16.543Z,1008.63
2016-12-11T01:57:27.541Z,1008.59
2016-12-11T01:58:38.529Z,1008.47
2016-12-11T01:59:49.517Z,1008.5
2016-12-11T02:01:00.502Z,1008.43
2016-12-11T02:02:11.491Z,1008.43
2016-12-11T02:03:22.474Z,1008.4
2016-12-11T02:04:33.496Z,1008.35
2016-12-11T02:05:44.481Z,1008.29
2016-12-11T02:06:55.672Z,1008.22
2016-12-11T02:08:06.653Z,1008.21
2016-12-11T02:09:17.641Z,1008.2
2016-12-11T02:10:28.624Z,1008.1
2016-12-11T02:11:39.618Z,1008.03
2016-12-11T02:12:50.624Z,1008.19
2016-12-11T02:14:01.829Z,1008.15
2016-12-11T02:15:12.818Z,1008.11
2016-12-11T02:16:23.800Z,1008.05
2016-12-11T02:17:34.799Z,1008.12
2016-12-11T02:18:45.785Z,1008.03
2016-12-11T02:19:56.777Z,1007.99
2016-12-11T02:21:07.768Z,1007.97
2016-12-11T02:22:18.762Z,1007.98
2016-12-11T02:23:29.751Z,1007.87
2016-12-11T02:24:40.733Z,1007.86
2016-12-11T02:25:51.925Z,1007.78
2016-12-11T02:27:02.920Z,1007.74
2016-12-11T02:28:13.903Z,1007.72
2016-12-11T02:29:24.888Z,1007.71
2016-12-11T02:30:35.882Z,1007.62
2016-12-11T02:31:46.875Z,1007.61
2016-12-11T02:32:57.862Z,1007.58
2016-12-11T02:34:09.077Z,1007.58
2016-12-11T02:35:20.087Z,1007.53
2016-12-11T02:36:31.079Z,1007.53
2016-12-11T02:37:42.070Z,1007.4
2016-12-11T02:38:53.056Z,1007.43
2016-12-11T02:40:04.258Z,1007.35
2016-12-11T02:41:15.247Z,1007.33
2016-12-11T02:42:26.233Z,1007.34
2016-12-11T02:43:37.223Z,1007.32
2016-12-11T02:44:48.202Z,1007.29
2016-12-11T02:45:59.192Z,1007.23
2016-12-11T02:47:10.176Z,1007.26
2016-12-11T02:48:21.357Z,1007.27
2016-12-11T02:49:32.336Z,1007.19
2016-12-11T02:50:43.323Z,1007.3
2016-12-11T02:51:54.308Z,1007.29
2016-12-11T02:53:05.309Z,1007.28
2016-12-11T02:54:16.296Z,1007.26
2016-12-11T02:55:27.312Z,1007.2
2016-12-11T02:56:38.298Z,1007.19
2016-12-11T02:57:49.481Z,1007.17
2016-12-11T02:59:00.474Z,1007.14
2016-12-11T03:00:11.464Z,1007.15
2016-12-11T03:01:22.649Z,1007.09
2016-12-11T03:02:33.642Z,1007.11
2016-12-11T03:03:44.633Z,1007.04
2016-12-11T03:04:55.626Z,1006.98
2016-12-11T03:06:06.616Z,1006.87
2016-12-11T03:07:17.608Z,1006.89
2016-12-11T03:08:28.788Z,1007.01
2016-12-11T03:09:39.774Z,1006.97
2016-12-11T03:10:50.823Z,1007
2016-12-11T03:12:01.819Z,1006.95
2016-12-11T03:13:13.009Z,1007
2016-12-11T03:14:24.004Z,1006.93
2016-12-11T03:15:35.245Z,1007.03
2016-12-11T03:16:46.232Z,1006.91
2016-12-11T03:17:57.422Z,1006.88
2016-12-11T03:19:08.403Z,1006.82
2016-12-11T03:20:19.392Z,1006.9
2016-12-11T03:21:30.432Z,1006.88
2016-12-11T03:22:41.417Z,1006.88
2016-12-11T03:23:52.412Z,1006.93
2016-12-11T03:25:03.407Z,1006.88
2016-12-11T03:26:14.594Z,1006.97
2016-12-11T03:27:25.831Z,1006.84
2016-12-11T03:28:36.835Z,1006.93
2016-12-11T03:29:47.845Z,1006.85
2016-12-11T03:30:59.058Z,1006.87
2016-12-11T03:32:10.057Z,1006.92
2016-12-11T03:33:21.096Z,1006.91
2016-12-11T03:34:32.283Z,1006.9
2016-12-11T03:35:43.274Z,1006.9
2016-12-11T03:36:54.456Z,1007.02
2016-12-11T03:38:05.441Z,1006.95
2016-12-11T03:39:16.482Z,1007
2016-12-11T03:40:27.473Z,1006.96
2016-12-11T03:41:38.469Z,1006.92
2016-12-11T03:42:49.470Z,1006.97
2016-12-11T03:44:00.453Z,1006.97
2016-12-11T03:45:11.441Z,1006.94
2016-12-11T03:46:22.429Z,1006.97
2016-12-11T03:47:33.414Z,1006.96
2016-12-11T03:48:44.400Z,1006.95
2016-12-11T03:49:55.391Z,1006.93
2016-12-11T03:51:06.383Z,1006.9
2016-12-11T03:52:17.369Z,1006.93
2016-12-11T03:53:28.355Z,1006.96
2016-12-11T03:54:39.363Z,1006.86
2016-12-11T03:55:50.349Z,1006.85
2016-12-11T03:57:01.541Z,1006.86
2016-12-11T03:58:12.528Z,1006.84
2016-12-11T03:59:23.546Z,1006.74
2016-12-11T04:00:34.529Z,1006.74
2016-12-11T04:01:45.512Z,1006.58
2016-12-11T04:02:56.500Z,1006.56
2016-12-11T04:04:07.722Z,1006.57
2016-12-11T04:05:18.918Z,1006.59
2016-12-11T04:06:30.112Z,1006.61
2016-12-11T04:07:41.109Z,1006.56
2016-12-11T04:08:52.294Z,1006.55
2016-12-11T04:10:03.306Z,1006.52
2016-12-11T04:11:14.293Z,1006.47
2016-12-11T04:12:25.284Z,1006.35
2016-12-11T04:13:36.275Z,1006.42
2016-12-11T04:14:47.270Z,1006.37
2016-12-11T04:15:58.255Z,1006.48
2016-12-11T04:17:09.249Z,1006.49
2016-12-11T04:18:20.442Z,1006.53
2016-12-11T04:19:31.430Z,1006.51
2016-12-11T04:20:42.422Z,1006.55
2016-12-11T04:21:53.614Z,1006.62
2016-12-11T04:23:04.605Z,1006.67
2016-12-11T04:24:15.820Z,1006.7
2016-12-11T04:25:26.804Z,1006.64
2016-12-11T04:26:37.792Z,1006.61
2016-12-11T04:27:48.780Z,1006.68
2016-12-11T04:28:59.762Z,1006.74
2016-12-11T04:30:10.757Z,1006.8
2016-12-11T04:31:21.736Z,1006.7
2016-12-11T04:32:32.730Z,1006.84
2016-12-11T04:33:43.747Z,1006.91
2016-12-11T04:34:54.730Z,1006.78
2016-12-11T04:36:05.770Z,1007
2016-12-11T04:37:16.771Z,1006.97
2016-12-11T04:38:27.963Z,1006.96
2016-12-11T04:39:38.955Z,1007.07
2016-12-11T04:40:49.946Z,1007.08
2016-12-11T04:42:00.925Z,1007.14
2016-12-11T04:43:12.120Z,1007.18
2016-12-11T04:44:23.315Z,1007.37
2016-12-11T04:45:34.560Z,1007.42
2016-12-11T04:46:45.564Z,1007.42
2016-12-11T04:47:56.554Z,1007.6
2016-12-11T04:49:07.793Z,1007.52
2016-12-11T04:50:18.789Z,1007.83
2016-12-11T04:51:29.823Z,1007.88
2016-12-11T04:52:40.813Z,1007.97
2016-12-11T04:53:51.804Z,1007.92
2016-12-11T04:55:02.825Z,1008.06
2016-12-11T04:56:13.822Z,1008.17
2016-12-11T04:57:24.863Z,1008.25
2016-12-11T04:58:35.852Z,1008.28
2016-12-11T04:59:46.853Z,1008.33
2016-12-11T05:00:58.047Z,1008.4
2016-12-11T05:02:09.039Z,1008.62
2016-12-11T05:03:20.115Z,1008.72
2016-12-11T05:04:31.104Z,1008.8
2016-12-11T05:05:42.091Z,1008.89
2016-12-11T05:06:53.080Z,1008.83
2016-12-11T05:08:04.275Z,1009.16
2016-12-11T05:09:15.315Z,1009.27
2016-12-11T05:10:26.310Z,1009.33
2016-12-11T05:11:37.313Z,1009.26
2016-12-11T05:12:48.306Z,1009.27
2016-12-11T05:13:59.294Z,1009.34
2016-12-11T05:15:10.327Z,1009.4
2016-12-11T05:16:21.724Z,1009.39
2016-12-11T05:17:32.707Z,1009.33
2016-12-11T05:18:43.694Z,1009.52
2016-12-11T05:19:54.887Z,1009.5
2016-12-11T05:21:05.875Z,1009.53
2016-12-11T05:22:17.065Z,1009.54
2016-12-11T05:23:28.053Z,1009.58
2016-12-11T05:24:39.040Z,1009.63
2016-12-11T05:25:50.104Z,1009.71
2016-12-11T05:27:01.098Z,1009.72
2016-12-11T05:28:12.088Z,1009.77
2016-12-11T05:29:23.073Z,1009.85
2016-12-11T05:30:34.061Z,1009.7
2016-12-11T05:31:45.254Z,1009.93
2016-12-11T05:32:56.433Z,1009.99
2016-12-11T05:34:07.432Z,1009.97
2016-12-11T05:35:18.489Z,1009.96
2016-12-11T05:36:29.693Z,1010.2
2016-12-11T05:37:40.674Z,1010.17
2016-12-11T05:38:51.660Z,1010.2
2016-12-11T05:40:02.705Z,1010.36
2016-12-11T05:41:13.891Z,1010.39
2016-12-11T05:42:24.883Z,1010.31
2016-12-11T05:43:35.876Z,1010.45
2016-12-11T05:44:46.867Z,1010.33
2016-12-11T05:45:57.899Z,1010.53
2016-12-11T05:47:08.902Z,1010.53
2016-12-11T05:48:20.093Z,1010.58
2016-12-11T05:49:31.100Z,1010.65
2016-12-11T05:50:42.085Z,1010.77
2016-12-11T05:51:53.077Z,1010.79
2016-12-11T05:53:04.058Z,1010.86
2016-12-11T05:54:15.073Z,1010.94
2016-12-11T05:55:26.061Z,1010.97
2016-12-11T05:56:37.052Z,1011.06
2016-12-11T05:57:48.032Z,1011.08
2016-12-11T05:58:59.033Z,1011.12
2016-12-11T06:00:10.220Z,1011.19
2016-12-11T06:01:21.210Z,1011.25
2016-12-11T06:02:32.191Z,1011.34
2016-12-11T06:03:43.183Z,1011.41
2016-12-11T06:04:54.172Z,1011.42
2016-12-11T06:06:05.165Z,1011.44
2016-12-11T06:07:16.159Z,1011.52
2016-12-11T06:08:27.158Z,1011.49
2016-12-11T06:09:38.148Z,1011.53
2016-12-11T06:10:49.133Z,1011.62
2016-12-11T06:12:00.117Z,1011.72
2016-12-11T06:13:11.099Z,1011.76
2016-12-11T06:14:22.083Z,1011.76
2016-12-11T06:15:33.081Z,1011.82
2016-12-11T06:16:44.076Z,1011.85
2016-12-11T06:17:55.060Z,1011.83
2016-12-11T06:19:06.051Z,1011.82
2016-12-11T06:20:17.245Z,1011.86
2016-12-11T06:21:28.237Z,1011.85
2016-12-11T06:22:39.230Z,1011.97
2016-12-11T06:23:50.220Z,1011.93
2016-12-11T06:25:01.199Z,1012.03
2016-12-11T06:26:12.185Z,1012.07
2016-12-11T06:27:23.181Z,1012.11
2016-12-11T06:28:34.170Z,1012.03
2016-12-11T06:29:45.371Z,1012.14
2016-12-11T06:30:56.355Z,1012.2
2016-12-11T06:32:07.343Z,1012.18
2016-12-11T06:33:18.329Z,1012.23
2016-12-11T06:34:29.519Z,1012.26
2016-12-11T06:35:40.512Z,1012.26
2016-12-11T06:36:51.706Z,1012.32
2016-12-11T06:38:02.698Z,1012.31
2016-12-11T06:39:13.691Z,1012.32
2016-12-11T06:40:24.875Z,1012.24
2016-12-11T06:41:35.862Z,1012.33
2016-12-11T06:42:46.846Z,1012.32
2016-12-11T06:43:57.831Z,1012.36
2016-12-11T06:45:09.017Z,1012.41
2016-12-11T06:46:20.007Z,1012.47
2016-12-11T06:47:30.992Z,1012.44
2016-12-11T06:48:41.982Z,1012.43
2016-12-11T06:49:52.968Z,1012.41
2016-12-11T06:51:03.958Z,1012.51
2016-12-11T06:52:14.945Z,1012.52
2016-12-11T06:53:25.932Z,1012.49
2016-12-11T06:54:36.923Z,1012.48
2016-12-11T06:55:47.908Z,1012.48
2016-12-11T06:56:58.890Z,1012.47
2016-12-11T06:58:09.876Z,1012.46
2016-12-11T06:59:20.887Z,1012.44
2016-12-11T07:00:31.877Z,1012.51
2016-12-11T07:01:42.862Z,1012.54
2016-12-11T07:02:53.848Z,1012.56
2016-12-11T07:04:04.847Z,1012.59
2016-12-11T07:05:15.838Z,1012.62
2016-12-11T07:06:26.827Z,1012.69
2016-12-11T07:07:37.809Z,1012.73
2016-12-11T07:08:48.793Z,1012.71
2016-12-11T07:09:59.784Z,1012.77
2016-12-11T07:11:10.820Z,1012.81
2016-12-11T07:12:22.007Z,1012.82
2016-12-11T07:13:32.996Z,1012.9
2016-12-11T07:14:43.985Z,1012.91
2016-12-11T07:15:54.978Z,1012.87
2016-12-11T07:17:05.965Z,1012.93
2016-12-11T07:18:16.959Z,1012.86
2016-12-11T07:19:27.938Z,1012.89
2016-12-11T07:20:39.128Z,1012.89
2016-12-11T07:21:50.114Z,1012.92
2016-12-11T07:23:01.119Z,1012.96
2016-12-11T07:24:12.300Z,1012.93
2016-12-11T07:25:23.487Z,1012.98
2016-12-11T07:26:34.470Z,1012.96
2016-12-11T07:27:45.454Z,1013
2016-12-11T07:28:56.440Z,1013.03
2016-12-11T07:30:07.429Z,1013.02
2016-12-11T07:31:18.619Z,1013.11
2016-12-11T07:32:29.609Z,1013.03
2016-12-11T07:33:40.594Z,1013.02
2016-12-11T07:34:51.773Z,1013.06
2016-12-11T07:36:03.010Z,1013.07
2016-12-11T07:37:14.002Z,1013.07
2016-12-11T07:38:24.993Z,1013.07
2016-12-11T07:39:36.183Z,1013.12
2016-12-11T07:40:47.170Z,1013.11
2016-12-11T07:41:58.162Z,1013.19
2016-12-11T07:43:09.147Z,1013.23
2016-12-11T07:44:20.132Z,1013.27
2016-12-11T07:45:31.317Z,1013.29
2016-12-11T07:46:42.498Z,1013.29
2016-12-11T07:47:53.493Z,1013.26
2016-12-11T07:49:04.480Z,1013.31
2016-12-11T07:50:15.473Z,1013.33
2016-12-11T07:51:26.463Z,1013.28
2016-12-11T07:52:37.443Z,1013.32
2016-12-11T07:53:48.442Z,1013.33
2016-12-11T07:54:59.432Z,1013.36
2016-12-11T07:56:10.426Z,1013.4
2016-12-11T07:57:21.420Z,1013.35
2016-12-11T07:58:32.409Z,1013.42
2016-12-11T07:59:43.391Z,1013.38
2016-12-11T08:00:54.430Z,1013.42
2016-12-11T08:02:05.431Z,1013.43
2016-12-11T08:03:16.419Z,1013.43
2016-12-11T08:04:27.406Z,1013.39
2016-12-11T08:05:38.400Z,1013.44
2016-12-11T08:06:49.642Z,1013.49
2016-12-11T08:08:00.626Z,1013.5
2016-12-11T08:09:11.607Z,1013.51
2016-12-11T08:10:22.592Z,1013.54
2016-12-11T08:11:33.781Z,1013.6
2016-12-11T08:12:44.813Z,1013.57
2016-12-11T08:13:56.034Z,1013.58
2016-12-11T08:15:07.022Z,1013.64
2016-12-11T08:16:18.016Z,1013.66
2016-12-11T08:17:28.998Z,1013.69
2016-12-11T08:18:40.031Z,1013.66
2016-12-11T08:19:51.225Z,1013.69
2016-12-11T08:21:02.211Z,1013.65
2016-12-11T08:22:13.219Z,1013.69
2016-12-11T08:23:24.209Z,1013.66
2016-12-11T08:24:35.244Z,1013.62
2016-12-11T08:25:46.228Z,1013.69
2016-12-11T08:26:57.211Z,1013.67
2016-12-11T08:28:08.193Z,1013.7
2016-12-11T08:29:19.185Z,1013.69
2016-12-11T08:30:30.173Z,1013.71
2016-12-11T08:31:41.169Z,1013.67
2016-12-11T08:32:52.156Z,1013.66
2016-12-11T08:34:03.141Z,1013.7
2016-12-11T08:35:14.129Z,1013.65
2016-12-11T08:36:25.115Z,1013.62
2016-12-11T08:37:36.099Z,1013.61
2016-12-11T08:38:47.082Z,1013.63
2016-12-11T08:39:58.064Z,1013.66
2016-12-11T08:41:09.096Z,1013.68
2016-12-11T08:42:20.293Z,1013.71
2016-12-11T08:43:31.275Z,1013.69
2016-12-11T08:44:42.264Z,1013.69
2016-12-11T08:45:53.262Z,1013.75
2016-12-11T08:47:04.245Z,1013.74
2016-12-11T08:48:15.238Z,1013.81
2016-12-11T08:49:26.230Z,1013.79
2016-12-11T08:50:37.214Z,1013.81
2016-12-11T08:51:48.232Z,1013.91
2016-12-11T08:52:59.221Z,1013.94
2016-12-11T08:54:10.210Z,1013.99
2016-12-11T08:55:21.242Z,1014.03
2016-12-11T08:56:32.245Z,1014.04
2016-12-11T08:57:43.231Z,1014.08
2016-12-11T08:58:54.222Z,1014.08
2016-12-11T09:00:05.214Z,1014.05
2016-12-11T09:01:16.223Z,1014.1
2016-12-11T09:02:27.207Z,1014.13
2016-12-11T09:03:38.190Z,1014.15
2016-12-11T09:04:49.370Z,1014.18
2016-12-11T09:06:00.562Z,1014.24
2016-12-11T09:07:11.551Z,1014.21
2016-12-11T09:08:22.540Z,1014.22
2016-12-11T09:09:33.523Z,1014.29
2016-12-11T09:10:44.506Z,1014.25
2016-12-11T09:11:55.494Z,1014.26
2016-12-11T09:13:06.481Z,1014.28
2016-12-11T09:14:17.462Z,1014.34
2016-12-11T09:15:28.645Z,1014.38
2016-12-11T09:16:39.644Z,1014.25
2016-12-11T09:17:50.663Z,1014.3
2016-12-11T09:19:01.649Z,1014.36
2016-12-11T09:20:12.688Z,1014.33
2016-12-11T09:21:23.671Z,1014.4
2016-12-11T09:22:34.657Z,1014.4
2016-12-11T09:23:45.642Z,1014.43
2016-12-11T09:24:56.637Z,1014.46
2016-12-11T09:26:07.625Z,1014.44
2016-12-11T09:27:18.612Z,1014.51
2016-12-11T09:28:29.634Z,1014.44
2016-12-11T09:29:40.630Z,1014.5
2016-12-11T09:30:51.607Z,1014.49
2016-12-11T09:32:02.589Z,1014.49
2016-12-11T09:33:13.570Z,1014.57
2016-12-11T09:34:24.766Z,1014.53
2016-12-11T09:35:35.753Z,1014.5
2016-12-11T09:36:46.745Z,1014.47
2016-12-11T09:37:57.935Z,1014.56
2016-12-11T09:39:08.918Z,1014.55
2016-12-11T09:40:20.101Z,1014.54
2016-12-11T09:41:31.079Z,1014.59
2016-12-11T09:42:42.061Z,1014.61
2016-12-11T09:43:53.258Z,1014.55
2016-12-11T09:45:04.244Z,1014.57
2016-12-11T09:46:15.230Z,1014.62
2016-12-11T09:47:26.413Z,1014.63
2016-12-11T09:48:37.407Z,1014.61
2016-12-11T09:49:48.800Z,1014.62
2016-12-11T09:50:59.788Z,1014.59
2016-12-11T09:52:10.966Z,1014.59
2016-12-11T09:53:21.963Z,1014.58
2016-12-11T09:54:33.159Z,1014.6
2016-12-11T09:55:44.150Z,1014.56
2016-12-11T09:56:55.144Z,1014.65
2016-12-11T09:58:06.133Z,1014.64
2016-12-11T09:59:17.117Z,1014.62
2016-12-11T10:00:28.106Z,1014.6
2016-12-11T10:01:39.104Z,1014.61
2016-12-11T10:02:50.088Z,1014.62
2016-12-11T10:04:01.099Z,1014.55
2016-12-11T10:05:12.084Z,1014.58
2016-12-11T10:06:23.071Z,1014.58
2016-12-11T10:07:34.257Z,1014.58
2016-12-11T10:08:45.241Z,1014.6
2016-12-11T10:09:56.430Z,1014.48
2016-12-11T10:11:07.421Z,1014.49
2016-12-11T10:12:18.417Z,1014.45
2016-12-11T10:13:29.611Z,1014.43
2016-12-11T10:14:40.793Z,1014.44
2016-12-11T10:15:51.784Z,1014.49
2016-12-11T10:17:02.769Z,1014.52
2016-12-11T10:18:14.156Z,1014.5
2016-12-11T10:19:25.180Z,1014.51
2016-12-11T10:20:36.169Z,1014.51
2016-12-11T10:21:47.164Z,1014.54
2016-12-11T10:22:58.147Z,1014.54
2016-12-11T10:24:09.144Z,1014.52
2016-12-11T10:25:20.328Z,1014.54
2016-12-11T10:26:31.312Z,1014.55
2016-12-11T10:27:42.297Z,1014.52
2016-12-11T10:28:53.687Z,1014.59
2016-12-11T10:30:04.878Z,1014.66
2016-12-11T10:31:15.865Z,1014.55
2016-12-11T10:32:26.849Z,1014.58
2016-12-11T10:33:37.839Z,1014.6
2016-12-11T10:34:48.830Z,1014.51
2016-12-11T10:35:59.824Z,1014.54
2016-12-11T10:37:10.810Z,1014.55
2016-12-11T10:38:21.803Z,1014.5
2016-12-11T10:39:32.818Z,1014.41
2016-12-11T10:40:43.809Z,1014.49
2016-12-11T10:41:54.793Z,1014.47
2016-12-11T10:43:05.785Z,1014.5
2016-12-11T10:44:16.776Z,1014.64
2016-12-11T10:45:27.970Z,1014.61
2016-12-11T10:46:38.968Z,1014.7
2016-12-11T10:47:50.159Z,1014.68
2016-12-11T10:49:01.142Z,1014.63
2016-12-11T10:50:12.124Z,1014.69
2016-12-11T10:51:23.129Z,1014.66
2016-12-11T10:52:34.109Z,1014.64
2016-12-11T10:53:45.109Z,1014.68
2016-12-11T10:54:56.102Z,1014.69
2016-12-11T10:56:07.086Z,1014.69
2016-12-11T10:57:18.080Z,1014.78
2016-12-11T10:58:29.065Z,1014.65
2016-12-11T10:59:40.052Z,1014.64
2016-12-11T11:00:51.048Z,1014.69
2016-12-11T11:02:02.046Z,1014.6
2016-12-11T11:03:13.037Z,1014.59
2016-12-11T11:04:24.036Z,1014.64
2016-12-11T11:05:35.033Z,1014.6
2016-12-11T11:06:46.023Z,1014.58
2016-12-11T11:07:57.026Z,1014.55
2016-12-11T11:09:08.040Z,1014.51
2016-12-11T11:10:19.034Z,1014.52
2016-12-11T11:11:30.019Z,1014.49
2016-12-11T11:12:41.019Z,1014.57
2016-12-11T11:13:52.007Z,1014.54
2016-12-11T11:15:02.994Z,1014.53
2016-12-11T11:16:13.988Z,1014.53
2016-12-11T11:17:24.988Z,1014.58
2016-12-11T11:18:35.982Z,1014.57
2016-12-11T11:19:46.974Z,1014.59
2016-12-11T11:20:58.015Z,1014.6
2016-12-11T11:22:09.007Z,1014.58
2016-12-11T11:23:19.984Z,1014.51
2016-12-11T11:24:30.973Z,1014.51
2016-12-11T11:25:41.960Z,1014.48
2016-12-11T11:26:52.954Z,1014.53
2016-12-11T11:28:03.940Z,1014.5
2016-12-11T11:29:14.933Z,1014.52
2016-12-11T11:30:25.923Z,1014.55
2016-12-11T11:31:36.907Z,1014.51
2016-12-11T11:32:47.921Z,1014.6
2016-12-11T11:33:58.907Z,1014.67
2016-12-11T11:35:09.944Z,1014.66
2016-12-11T11:36:20.934Z,1014.63
2016-12-11T11:37:31.922Z,1014.65
2016-12-11T11:38:43.102Z,1014.65
2016-12-11T11:39:54.093Z,1014.66
2016-12-11T11:41:05.132Z,1014.69
2016-12-11T11:42:16.322Z,1014.71
2016-12-11T11:43:27.308Z,1014.72
2016-12-11T11:44:38.301Z,1014.74
2016-12-11T11:45:49.292Z,1014.78
2016-12-11T11:47:00.332Z,1014.82
2016-12-11T11:48:11.329Z,1014.75
2016-12-11T11:49:22.322Z,1014.78
2016-12-11T11:50:33.515Z,1014.84
2016-12-11T11:51:44.503Z,1014.8
2016-12-11T11:52:55.540Z,1014.77
2016-12-11T11:54:06.537Z,1014.71
2016-12-11T11:55:17.522Z,1014.72
2016-12-11T11:56:28.706Z,1014.72
2016-12-11T11:57:39.895Z,1014.77
2016-12-11T11:58:50.944Z,1014.74
2016-12-11T12:00:01.941Z,1014.8
2016-12-11T12:01:12.932Z,1014.75
2016-12-11T12:02:23.928Z,1014.79
2016-12-11T12:03:34.915Z,1014.8
2016-12-11T12:04:45.945Z,1014.76
2016-12-11T12:05:56.928Z,1014.8
2016-12-11T12:07:07.913Z,1014.79
2016-12-11T12:08:18.908Z,1014.82
2016-12-11T12:09:29.893Z,1014.73
2016-12-11T12:10:40.881Z,1014.78
2016-12-11T12:11:51.877Z,1014.73
2016-12-11T12:13:02.868Z,1014.71
2016-12-11T12:14:13.858Z,1014.7
2016-12-11T12:15:24.850Z,1014.73
2016-12-11T12:16:35.845Z,1014.73
2016-12-11T12:17:47.034Z,1014.61
2016-12-11T12:18:58.221Z,1014.73
2016-12-11T12:20:09.215Z,1014.69
2016-12-11T12:21:20.404Z,1014.69
2016-12-11T12:22:31.392Z,1014.6
2016-12-11T12:23:42.380Z,1014.66
2016-12-11T12:24:53.377Z,1014.61
2016-12-11T12:26:04.370Z,1014.61
2016-12-11T12:27:15.553Z,1014.66
2016-12-11T12:28:26.743Z,1014.65
2016-12-11T12:29:37.731Z,1014.72
2016-12-11T12:30:48.719Z,1014.7
2016-12-11T12:31:59.712Z,1014.66
2016-12-11T12:33:10.705Z,1014.74
2016-12-11T12:34:21.692Z,1014.69
2016-12-11T12:35:32.684Z,1014.77
2016-12-11T12:36:43.662Z,1014.72
2016-12-11T12:37:54.654Z,1014.67
2016-12-11T12:39:05.644Z,1014.65
2016-12-11T12:40:17.033Z,1014.68
2016-12-11T12:41:28.022Z,1014.68
2016-12-11T12:42:39.012Z,1014.71
2016-12-11T12:43:50.009Z,1014.69
2016-12-11T12:45:01.207Z,1014.69
2016-12-11T12:46:12.457Z,1014.68
2016-12-11T12:47:23.477Z,1014.63
2016-12-11T12:48:34.668Z,1014.59
2016-12-11T12:49:45.861Z,1014.6
2016-12-11T12:50:56.894Z,1014.58
2016-12-11T12:52:07.877Z,1014.62
2016-12-11T12:53:18.865Z,1014.54
2016-12-11T12:54:29.861Z,1014.6
2016-12-11T12:55:40.853Z,1014.62
2016-12-11T12:56:51.885Z,1014.52
2016-12-11T12:58:02.871Z,1014.63
2016-12-11T12:59:13.860Z,1014.6
2016-12-11T13:00:24.843Z,1014.61
2016-12-11T13:01:36.031Z,1014.6
2016-12-11T13:02:47.070Z,1014.65
2016-12-11T13:03:58.064Z,1014.64
2016-12-11T13:05:09.048Z,1014.63
2016-12-11T13:06:20.231Z,1014.65
2016-12-11T13:07:31.231Z,1014.65
2016-12-11T13:08:42.263Z,1014.68
2016-12-11T13:09:53.253Z,1014.69
2016-12-11T13:11:04.446Z,1014.71
2016-12-11T13:12:15.641Z,1014.74
2016-12-11T13:13:26.631Z,1014.68
2016-12-11T13:14:37.676Z,1014.73
2016-12-11T13:15:48.659Z,1014.72
2016-12-11T13:16:59.849Z,1014.75
2016-12-11T13:18:10.835Z,1014.74
2016-12-11T13:19:21.826Z,1014.76
2016-12-11T13:20:32.808Z,1014.72
2016-12-11T13:21:43.797Z,1014.76
2016-12-11T13:22:55.188Z,1014.7
2016-12-11T13:24:06.181Z,1014.8
2016-12-11T13:25:17.367Z,1014.77
2016-12-11T13:26:28.360Z,1014.78
2016-12-11T13:27:39.375Z,1014.78
2016-12-11T13:28:50.368Z,1014.78
2016-12-11T13:30:01.365Z,1014.75
2016-12-11T13:31:12.356Z,1014.8
2016-12-11T13:32:23.340Z,1014.73
2016-12-11T13:33:34.326Z,1014.76
2016-12-11T13:34:45.321Z,1014.78
2016-12-11T13:35:56.359Z,1014.73
2016-12-11T13:37:07.547Z,1014.73
2016-12-11T13:38:18.532Z,1014.75
2016-12-11T13:39:29.762Z,1014.76
2016-12-11T13:40:40.742Z,1014.73
2016-12-11T13:41:51.775Z,1014.7
2016-12-11T13:43:02.765Z,1014.66
2016-12-11T13:44:13.955Z,1014.65
2016-12-11T13:45:24.943Z,1014.61
2016-12-11T13:46:35.945Z,1014.58
2016-12-11T13:47:46.981Z,1014.56
2016-12-11T13:48:58.174Z,1014.6
2016-12-11T13:50:09.167Z,1014.62
2016-12-11T13:51:20.157Z,1014.59
2016-12-11T13:52:31.151Z,1014.56
2016-12-11T13:53:42.392Z,1014.61
2016-12-11T13:54:53.379Z,1014.6
2016-12-11T13:56:04.392Z,1014.63
2016-12-11T13:57:15.381Z,1014.55
2016-12-11T13:58:26.367Z,1014.58
2016-12-11T13:59:37.408Z,1014.54
2016-12-11T14:00:48.388Z,1014.61
2016-12-11T14:01:59.382Z,1014.59
2016-12-11T14:03:10.376Z,1014.59
2016-12-11T14:04:21.379Z,1014.59
2016-12-11T14:05:32.410Z,1014.54
2016-12-11T14:06:43.406Z,1014.54
2016-12-11T14:07:54.422Z,1014.54
2016-12-11T14:09:05.414Z,1014.6
2016-12-11T14:10:16.402Z,1014.63
2016-12-11T14:11:27.391Z,1014.61
2016-12-11T14:12:38.378Z,1014.61
2016-12-11T14:13:49.364Z,1014.62
2016-12-11T14:15:00.351Z,1014.62
2016-12-11T14:16:11.353Z,1014.66
2016-12-11T14:17:22.335Z,1014.71
2016-12-11T14:18:33.535Z,1014.7
2016-12-11T14:19:44.529Z,1014.74
2016-12-11T14:20:55.740Z,1014.65
2016-12-11T14:22:06.927Z,1014.69